Weather at Riverside Municipal Airport

Public forecast

Using degrees Fahrenheit for public forecast. Weather courtesy of forecast.io.

Current aviation weather report (METAR) for Riverside Municipal Airport

Retrieved 2020/09/26 04:53 UTC (26 minutes ago):

KRAL 260453Z AUTO 00000KT 10SM CLR 22/14 A2996 RMK AO2 SLP128 T02170139

Closest aviation forecast (TAF) to Riverside Municipal Airport

Closest forecast is Ontario International Airport, 10.0 nm (18.5 km) NW. Retrieved 2020-09-26 00:22 UTC (5 hours ago):

TAF KONT 252320Z 2600/2706 25011KT P6SM FEW150 FM260400 VRB04KT P6SM SKC FM262000 26011KT P6SM SKC